Time;durP1;ratioP1;P1;durP2;ratioP2;P2;SDS_P1;SDS_P2;PMS_P1;PMS_P2;Temp;Humidity;BMP_temperature;BMP_pressure;BME280_temperature;BME280_humidity;BME280_pressure;Samples;Min_cycle;Max_cycle;Signal;HPM_P1;HPM_P2
2022/04/27 00:00:10;;;;;;;13.13;9.03;;;;;;;8.52;76.62;100444.28;1410958;87;21308;-82
2022/04/27 00:02:36;;;;;;;11.77;8.60;;;;;;;8.50;77.92;100440.10;1411356;87;21330;-83
2022/04/27 00:05:02;;;;;;;12.27;9.13;;;;;;;8.50;77.10;100436.97;1412539;87;21316;-82
2022/04/27 00:07:28;;;;;;;15.10;9.63;;;;;;;8.51;76.64;100439.95;1412561;87;21249;-83
2022/04/27 00:09:54;;;;;;;13.10;10.23;;;;;;;8.49;77.61;100441.91;1412555;87;21331;-82
2022/04/27 00:12:21;;;;;;;13.50;10.00;;;;;;;8.47;76.59;100437.25;1382273;89;22160;-82
2022/04/27 00:14:48;;;;;;;16.33;9.97;;;;;;;8.43;77.14;100441.59;1394883;88;21318;-82
2022/04/27 00:17:14;;;;;;;13.80;10.23;;;;;;;8.38;77.41;100440.66;1394878;88;21414;-81
2022/04/27 00:19:40;;;;;;;13.40;8.90;;;;;;;8.38;77.02;100442.47;1394754;88;21280;-84
2022/04/27 00:22:06;;;;;;;16.47;10.60;;;;;;;8.39;76.68;100444.16;1394792;88;21362;-83
2022/04/27 00:24:32;;;;;;;11.83;9.57;;;;;;;8.38;77.30;100443.78;1408120;87;21323;-83
2022/04/27 00:26:58;;;;;;;14.17;10.57;;;;;;;8.34;78.12;100443.19;1412196;87;21330;-82
2022/04/27 00:29:24;;;;;;;16.23;11.10;;;;;;;8.29;78.54;100445.41;1412107;87;21242;-83
2022/04/27 00:31:50;;;;;;;14.10;10.63;;;;;;;8.23;78.02;100450.73;1412585;87;21322;-82
2022/04/27 00:34:17;;;;;;;16.17;11.87;;;;;;;8.21;77.60;100446.55;1412622;86;21264;-82
2022/04/27 00:36:43;;;;;;;14.20;10.67;;;;;;;8.18;78.27;100446.81;1401230;87;21369;-83
2022/04/27 00:39:09;;;;;;;22.23;12.80;;;;;;;8.10;78.74;100446.97;1394681;88;21288;-81
2022/04/27 00:41:35;;;;;;;14.27;11.33;;;;;;;8.03;79.15;100445.84;1380869;89;21449;-81
2022/04/27 00:44:01;;;;;;;16.47;10.17;;;;;;;8.03;78.95;100445.84;1397762;87;21407;-82
2022/04/27 00:46:27;;;;;;;13.97;10.10;;;;;;;8.01;78.93;100441.17;1394425;88;21346;-82
2022/04/27 00:48:53;;;;;;;13.63;10.23;;;;;;;7.99;78.94;100433.87;1397273;88;22638;-81
2022/04/27 00:51:24;;;;;;;14.90;10.80;;;;;;;8.00;78.95;100431.61;1394439;88;21282;-81
2022/04/27 00:53:51;;;;;;;14.75;10.75;;;;;;;8.01;78.65;100429.31;1372819;91;21398;-81
2022/04/27 00:56:20;;;;;;;14.37;10.30;;;;;;;8.01;79.51;100435.91;1375873;89;21294;-82
2022/04/27 00:58:47;;;;;;;13.73;10.57;;;;;;;7.98;80.60;100432.22;1393152;88;21571;-82
2022/04/27 01:01:16;;;;;;;14.60;10.93;;;;;;;7.99;81.53;100429.92;1393202;88;21549;-82
2022/04/27 01:03:42;;;;;;;16.03;11.03;;;;;;;8.01;80.98;100429.80;1391297;89;21479;-82
2022/04/27 01:06:09;;;;;;;11.53;9.80;;;;;;;8.02;80.87;100425.70;1380769;89;21399;-82
2022/04/27 01:08:35;;;;;;;14.87;11.70;;;;;;;8.06;81.51;100427.62;1380837;89;21289;-82
2022/04/27 01:11:02;;;;;;;17.70;11.10;;;;;;;8.10;81.57;100428.52;1380538;89;22204;-82
2022/04/27 01:13:28;;;;;;;16.03;11.10;;;;;;;8.14;80.63;100431.27;1376728;89;21340;-82
2022/04/27 01:15:54;;;;;;;18.33;12.13;;;;;;;8.17;80.98;100426.22;1376283;89;21376;-82
2022/04/27 01:18:20;;;;;;;17.23;11.70;;;;;;;8.21;80.15;100423.65;1362395;89;21948;-81
2022/04/27 01:20:47;;;;;;;15.30;11.53;;;;;;;8.23;80.64;100422.19;1390838;88;21251;-82
2022/04/27 01:23:14;;;;;;;18.20;11.80;;;;;;;8.24;80.47;100426.52;1395389;89;22199;-82
2022/04/27 01:25:56;;;;;;;21.20;11.60;;;;;;;8.25;80.44;100425.05;1397827;88;21303;-82
2022/04/27 01:28:25;;;;;;;16.43;12.00;;;;;;;8.31;80.07;100426.31;1395133;88;21418;-82
2022/04/27 01:31:00;;;;;;;18.53;10.87;;;;;;;8.36;80.37;100429.39;1390828;87;21399;-82
2022/04/27 01:33:26;;;;;;;16.30;10.93;;;;;;;8.40;80.24;100418.98;1391335;88;21527;-82
2022/04/27 01:35:53;;;;;;;20.53;11.77;;;;;;;8.44;80.30;100419.05;1393103;86;22205;-81
2022/04/27 01:38:20;;;;;;;20.00;12.13;;;;;;;8.47;79.69;100425.38;1390989;88;21548;-82
2022/04/27 01:40:47;;;;;;;18.87;11.77;;;;;;;8.50;79.72;100425.59;1390640;88;21369;-82
2022/04/27 01:43:15;;;;;;;20.73;12.67;;;;;;;8.49;79.96;100428.72;1390834;88;21318;-82
2022/04/27 01:45:44;;;;;;;19.10;12.87;;;;;;;8.49;79.81;100424.77;1387634;88;21280;-82
2022/04/27 01:48:12;;;;;;;19.57;13.10;;;;;;;8.51;80.00;100424.61;1352118;91;21294;-82
2022/04/27 01:50:38;;;;;;;16.87;11.17;;;;;;;8.53;79.89;100421.37;1371679;89;21319;-82
2022/04/27 01:55:50;;;;;;;16.90;10.87;;;;;;;8.58;79.80;100418.67;1371397;90;22736;-82
2022/04/27 01:58:18;;;;;;;14.80;10.40;;;;;;;8.64;79.75;100416.47;1352124;91;21414;-82
2022/04/27 02:00:46;;;;;;;21.93;11.73;;;;;;;8.67;79.52;100415.71;1383353;90;21303;-81
2022/04/27 02:03:17;;;;;;;18.47;11.63;;;;;;;8.69;79.73;100415.09;1352420;91;21466;-82
2022/04/27 02:05:44;;;;;;;14.97;11.00;;;;;;;8.70;79.73;100413.29;1363550;90;21356;-82
2022/04/27 02:08:11;;;;;;;21.87;13.73;;;;;;;8.67;79.44;100413.56;1350989;91;21320;-82
2022/04/27 02:10:38;;;;;;;21.37;12.80;;;;;;;8.68;79.15;100411.27;1369137;89;22375;-83
2022/04/27 02:13:09;;;;;;;19.13;12.23;;;;;;;8.66;79.32;100406.59;1369320;89;21334;-82
2022/04/27 02:15:36;;;;;;;14.00;10.10;;;;;;;8.68;79.86;100412.58;1371462;90;22388;-82
2022/04/27 02:18:02;;;;;;;15.63;10.07;;;;;;;8.58;80.79;100404.66;1363449;91;21376;-82
2022/04/27 02:20:29;;;;;;;15.87;11.20;;;;;;;8.59;80.37;100407.14;1377481;89;21402;-82
2022/04/27 02:22:56;;;;;;;18.77;12.13;;;;;;;8.65;79.55;100410.22;1377646;89;22629;-82
2022/04/27 02:25:22;;;;;;;16.20;12.10;;;;;;;8.67;79.50;100408.28;1377697;89;21521;-83
2022/04/27 02:27:49;;;;;;;18.03;11.63;;;;;;;8.68;79.44;100408.13;1377529;89;21380;-81
2022/04/27 02:30:18;;;;;;;16.03;11.67;;;;;;;8.69;79.78;100403.69;1372966;89;21384;-81
2022/04/27 02:32:46;;;;;;;18.07;12.20;;;;;;;8.69;79.83;100397.09;1361426;91;21286;-81
2022/04/27 02:35:13;;;;;;;14.80;10.57;;;;;;;8.71;79.96;100391.20;1372063;91;22197;-82
2022/04/27 02:37:39;;;;;;;15.30;10.73;;;;;;;8.77;79.32;100389.33;1368349;89;21494;-82
2022/04/27 02:40:12;;;;;;;18.47;12.23;;;;;;;8.79;80.12;100388.72;1403741;87;21510;-83
2022/04/27 02:42:35;;;;;;;16.27;12.40;;;;;;;8.84;79.37;100395.74;1396262;87;21467;-83
2022/04/27 02:45:02;;;;;;;17.27;12.27;;;;;;;8.87;79.46;100392.00;1398149;87;21435;-82
2022/04/27 02:47:28;;;;;;;18.83;12.03;;;;;;;8.89;79.08;100396.17;1409496;87;21220;-81
2022/04/27 02:52:39;;;;;;;16.93;12.53;;;;;;;8.91;79.08;100400.81;1399335;87;21296;-82
2022/04/27 02:55:06;;;;;;;15.97;12.40;;;;;;;8.91;78.60;100400.81;1397594;88;21376;-81
2022/04/27 02:57:32;;;;;;;16.53;12.23;;;;;;;8.90;79.24;100391.23;1379305;90;22469;-83
2022/04/27 02:59:58;;;;;;;19.10;12.13;;;;;;;8.91;78.87;100398.17;1406024;87;21464;-83
2022/04/27 03:02:24;;;;;;;21.57;13.03;;;;;;;8.92;79.31;100399.86;1408752;87;21441;-83
2022/04/27 03:04:50;;;;;;;16.50;11.40;;;;;;;8.94;79.39;100402.34;1409336;87;21301;-83
2022/04/27 03:07:16;;;;;;;20.63;12.07;;;;;;;8.96;79.50;100399.92;1398865;87;21531;-83
2022/04/27 03:09:42;;;;;;;17.27;12.23;;;;;;;9.00;78.67;100402.61;1396999;88;21413;-81
2022/04/27 03:12:09;;;;;;;18.63;13.40;;;;;;;9.00;78.80;100397.34;1397790;88;21295;-81
2022/04/27 03:14:35;;;;;;;16.30;12.10;;;;;;;9.00;78.37;100396.50;1408143;87;21492;-81
2022/04/27 03:17:01;;;;;;;17.13;11.90;;;;;;;9.00;78.22;100388.09;1408937;87;21473;-81
2022/04/27 03:19:27;;;;;;;15.73;12.20;;;;;;;9.00;78.41;100390.73;1409369;87;21598;-81
2022/04/27 03:21:54;;;;;;;15.00;11.73;;;;;;;8.98;79.03;100394.02;1408405;87;21303;-83
2022/04/27 03:24:20;;;;;;;13.93;10.30;;;;;;;9.01;78.40;100399.02;1409132;87;21355;-83
2022/04/27 03:26:47;;;;;;;18.30;11.10;;;;;;;9.04;78.61;100403.20;1409306;87;21324;-83
2022/04/27 03:29:16;;;;;;;15.93;11.60;;;;;;;9.02;78.97;100403.32;1408974;87;21288;-82
2022/04/27 03:31:43;;;;;;;19.83;11.77;;;;;;;9.07;78.48;100404.73;1395858;88;21582;-82
2022/04/27 03:34:09;;;;;;;20.10;11.63;;;;;;;9.11;77.94;100404.78;1409154;87;21272;-82
2022/04/27 03:36:35;;;;;;;15.03;11.60;;;;;;;9.13;77.75;100407.64;1409226;87;21374;-81
2022/04/27 03:39:01;;;;;;;16.93;12.57;;;;;;;9.15;77.53;100410.13;1409714;87;21450;-81
2022/04/27 03:41:28;;;;;;;17.93;12.93;;;;;;;9.12;77.27;100405.98;1400343;88;21192;-81
2022/04/27 03:43:55;;;;;;;15.67;12.20;;;;;;;9.13;77.58;100409.45;1379967;89;21444;-81
2022/04/27 03:46:21;;;;;;;22.80;13.07;;;;;;;9.14;77.57;100413.75;1390598;88;21281;-82
2022/04/27 03:48:47;;;;;;;16.87;12.80;;;;;;;9.17;77.74;100414.80;1368699;90;22829;-83
2022/04/27 03:51:14;;;;;;;17.97;11.83;;;;;;;9.20;77.52;100414.02;1406092;87;21435;-82
2022/04/27 03:53:40;;;;;;;17.40;12.07;;;;;;;9.23;77.46;100416.87;1407223;87;22342;-82
2022/04/27 03:56:06;;;;;;;19.20;11.37;;;;;;;9.27;77.10;100426.20;1407468;87;21449;-82
2022/04/27 03:58:33;;;;;;;18.13;12.93;;;;;;;9.29;76.91;100426.87;1393988;88;21434;-83
2022/04/27 04:00:59;;;;;;;16.10;12.47;;;;;;;9.30;76.66;100429.88;1407573;87;21359;-82
2022/04/27 04:03:25;;;;;;;17.33;12.43;;;;;;;9.32;76.50;100432.38;1407302;87;21383;-82
2022/04/27 04:05:52;;;;;;;15.60;11.73;;;;;;;9.30;76.69;100431.20;1407446;87;21421;-83
2022/04/27 04:08:19;;;;;;;18.37;11.87;;;;;;;9.31;76.89;100431.54;1396190;87;21259;-82
2022/04/27 04:10:46;;;;;;;16.17;11.30;;;;;;;9.35;77.34;100434.27;1394202;88;21281;-82
2022/04/27 04:13:12;;;;;;;22.70;12.77;;;;;;;9.37;76.73;100436.27;1394430;88;21421;-82
2022/04/27 04:15:39;;;;;;;17.27;12.60;;;;;;;9.42;76.81;100435.36;1394251;88;21481;-82
2022/04/27 04:18:06;;;;;;;17.73;13.10;;;;;;;9.43;76.41;100435.70;1395696;86;22412;-82
2022/04/27 04:20:32;;;;;;;18.10;12.43;;;;;;;9.48;76.12;100438.77;1395182;88;21317;-79
2022/04/27 04:22:58;;;;;;;21.17;11.83;;;;;;;9.49;76.13;100435.16;1407410;87;22241;-81
2022/04/27 04:30:53;;;;;;;18.73;12.40;;;;;;;9.56;75.73;100449.96;1407052;86;21294;-82
2022/04/27 04:33:19;;;;;;;15.93;11.40;;;;;;;9.65;75.95;100449.60;1404913;87;22397;-81
2022/04/27 04:35:46;;;;;;;18.30;13.03;;;;;;;9.73;75.67;100452.38;1394601;88;21473;-81
2022/04/27 04:38:13;;;;;;;41.23;27.53;;;;;;;9.82;75.26;100458.13;1394374;88;21525;-81
2022/04/27 04:40:39;;;;;;;35.27;22.50;;;;;;;9.89;75.37;100452.61;1396150;86;21376;-81
2022/04/27 04:43:05;;;;;;;23.43;16.37;;;;;;;9.94;75.01;100455.66;1379745;88;21311;-82
2022/04/27 04:45:31;;;;;;;88.63;60.10;;;;;;;10.02;74.88;100450.99;1394378;88;21303;-82
2022/04/27 04:47:57;;;;;;;64.90;53.03;;;;;;;10.09;74.72;100447.27;1395816;88;21330;-82
2022/04/27 04:50:23;;;;;;;119.83;79.90;;;;;;;10.11;74.97;100456.73;1404077;87;21427;-82
2022/04/27 04:52:49;;;;;;;51.20;39.93;;;;;;;10.16;74.48;100453.67;1404323;87;22359;-81
2022/04/27 04:55:16;;;;;;;20.80;14.13;;;;;;;10.21;74.35;100458.02;1403474;87;21250;-81
2022/04/27 04:57:42;;;;;;;20.60;15.87;;;;;;;10.25;74.18;100465.20;1404052;87;22329;-81
2022/04/27 05:00:09;;;;;;;18.93;13.80;;;;;;;10.33;74.14;100465.34;1404331;87;21385;-80
2022/04/27 05:02:36;;;;;;;15.00;11.57;;;;;;;10.43;74.24;100470.59;1396735;87;21473;-81
2022/04/27 05:05:04;;;;;;;17.30;12.17;;;;;;;10.47;73.44;100470.16;1378993;89;21347;-81
2022/04/27 05:07:31;;;;;;;20.93;14.33;;;;;;;10.51;73.26;100469.38;1401127;88;22174;-81
2022/04/27 05:09:58;;;;;;;23.67;16.93;;;;;;;10.57;72.72;100468.78;1403528;88;21323;-80
2022/04/27 05:12:24;;;;;;;30.80;22.50;;;;;;;10.67;72.89;100466.08;1404199;87;21316;-82
2022/04/27 05:14:52;;;;;;;24.00;16.77;;;;;;;10.72;73.05;100469.12;1396846;87;22634;-82
2022/04/27 05:17:18;;;;;;;20.37;13.97;;;;;;;10.76;73.05;100466.05;1370676;90;22785;-82
2022/04/27 05:19:45;;;;;;;30.53;22.10;;;;;;;10.86;72.71;100463.83;1368863;90;21283;-81
2022/04/27 05:22:11;;;;;;;23.60;17.47;;;;;;;10.94;73.10;100466.57;1375843;89;21421;-81
2022/04/27 05:24:37;;;;;;;19.50;14.67;;;;;;;11.01;72.91;100466.30;1395405;88;21250;-81
2022/04/27 05:27:03;;;;;;;64.67;36.90;;;;;;;11.10;72.61;100468.05;1398421;87;21369;-81
2022/04/27 05:32:16;;;;;;;52.93;32.00;;;;;;;11.24;71.51;100465.38;1394264;88;21392;-81
2022/04/27 05:34:43;;;;;;;44.13;28.30;;;;;;;11.25;71.07;100467.06;1394467;88;21495;-82
2022/04/27 05:37:09;;;;;;;45.77;29.10;;;;;;;11.32;70.86;100466.78;1394226;88;22371;-81
2022/04/27 05:39:35;;;;;;;29.50;19.00;;;;;;;11.46;70.98;100473.38;1394637;88;21443;-81
2022/04/27 05:42:02;;;;;;;63.77;38.30;;;;;;;11.55;70.27;100472.45;1391045;87;21413;-82
2022/04/27 05:44:28;;;;;;;29.63;18.90;;;;;;;11.67;70.21;100474.37;1390680;88;22183;-82
2022/04/27 05:46:55;;;;;;;17.20;12.77;;;;;;;11.67;69.90;100479.17;1390882;88;21303;-82
2022/04/27 05:49:21;;;;;;;18.70;12.47;;;;;;;11.72;68.82;100485.35;1390762;88;21420;-81
2022/04/27 05:51:48;;;;;;;16.97;12.23;;;;;;;11.82;69.35;100482.59;1390914;88;21311;-81
2022/04/27 05:54:15;;;;;;;24.10;14.93;;;;;;;11.91;68.57;100486.53;1391190;88;22241;-80
2022/04/27 05:56:42;;;;;;;14.53;10.47;;;;;;;12.02;69.24;100484.09;1390631;88;21251;-82
2022/04/27 05:59:09;;;;;;;32.10;21.47;;;;;;;12.02;67.76;100491.23;1372576;90;21443;-82
2022/04/27 06:01:37;;;;;;;20.50;15.03;;;;;;;12.12;68.32;100484.02;1390654;88;21251;-80
2022/04/27 06:04:03;;;;;;;34.20;22.27;;;;;;;12.17;68.09;100490.52;1390810;88;22264;-80
2022/04/27 06:06:30;;;;;;;16.17;10.80;;;;;;;12.37;68.45;100493.79;1390950;88;21421;-80
2022/04/27 06:08:59;;;;;;;13.00;10.83;;;;;;;12.43;67.12;100508.26;1390787;87;21465;-80
2022/04/27 06:11:25;;;;;;;12.17;9.23;;;;;;;12.46;67.07;100507.94;1388004;88;21438;-81
2022/04/27 06:13:51;;;;;;;12.70;9.57;;;;;;;12.35;66.47;100505.55;1390698;88;21275;-81
2022/04/27 06:16:17;;;;;;;17.30;12.37;;;;;;;12.36;66.65;100509.86;1390944;88;21421;-81
2022/04/27 06:18:45;;;;;;;33.90;22.40;;;;;;;12.50;67.29;100516.41;1390603;88;21502;-81
2022/04/27 06:21:11;;;;;;;23.60;16.83;;;;;;;12.49;66.98;100524.05;1391439;88;21473;-81
2022/04/27 06:23:39;;;;;;;16.20;10.73;;;;;;;12.59;66.59;100524.75;1390948;88;21340;-81
2022/04/27 06:26:06;;;;;;;31.87;20.83;;;;;;;12.55;65.58;100525.56;1390608;88;21348;-81
2022/04/27 06:28:33;;;;;;;11.97;8.23;;;;;;;12.69;66.42;100526.80;1390775;88;21325;-80
2022/04/27 06:31:02;;;;;;;22.00;16.20;;;;;;;12.62;65.07;100525.76;1390758;88;21296;-81
2022/04/27 06:33:28;;;;;;;40.57;22.83;;;;;;;12.74;66.00;100524.48;1390981;87;21318;-81
2022/04/27 06:36:01;;;;;;;12.23;8.70;;;;;;;12.75;65.51;100531.98;1372556;89;22219;-81
2022/04/27 06:38:27;;;;;;;9.43;8.37;;;;;;;12.62;65.12;100525.26;1391392;88;21339;-81
2022/04/27 06:40:53;;;;;;;35.50;22.27;;;;;;;12.56;64.60;100535.19;1392895;87;22299;-81
2022/04/27 06:43:20;;;;;;;11.13;9.27;;;;;;;12.61;65.07;100530.23;1394206;88;21444;-81
2022/04/27 06:45:46;;;;;;;23.70;17.77;;;;;;;12.54;65.05;100527.86;1394606;88;21265;-81
2022/04/27 06:48:12;;;;;;;17.30;8.17;;;;;;;12.71;65.60;100526.62;1380231;88;21324;-81
2022/04/27 06:50:38;;;;;;;30.13;19.63;;;;;;;12.73;64.38;100529.47;1379668;89;22227;-81
2022/04/27 06:53:05;;;;;;;19.93;13.23;;;;;;;12.97;65.20;100526.56;1394465;88;21310;-81
2022/04/27 06:55:32;;;;;;;16.63;11.13;;;;;;;13.17;65.21;100523.97;1379473;89;22272;-81
2022/04/27 06:57:58;;;;;;;36.73;22.13;;;;;;;13.40;64.84;100520.73;1394173;88;21937;-82
2022/04/27 07:00:25;;;;;;;17.33;12.30;;;;;;;13.65;63.51;100514.95;1394323;88;21303;-81
2022/04/27 07:02:52;;;;;;;12.33;9.43;;;;;;;13.69;61.49;100510.95;1390938;88;21463;-81
2022/04/27 07:05:20;;;;;;;15.53;9.63;;;;;;;13.69;62.51;100510.45;1379839;89;22096;-80
2022/04/27 07:07:47;;;;;;;18.23;12.07;;;;;;;13.81;61.40;100514.11;1394476;88;22294;-81
2022/04/27 07:10:16;;;;;;;16.43;11.97;;;;;;;13.99;63.05;100518.27;1394366;88;21333;-81
2022/04/27 07:12:46;;;;;;;14.93;12.07;;;;;;;14.10;61.47;100517.11;1394126;88;21488;-81
2022/04/27 07:15:13;;;;;;;14.10;8.93;;;;;;;14.32;61.38;100520.88;1394176;86;21339;-81
2022/04/27 07:17:39;;;;;;;14.50;12.33;;;;;;;14.37;59.72;100515.88;1394315;88;21340;-81
2022/04/27 07:20:07;;;;;;;16.83;11.90;;;;;;;14.56;60.68;100516.55;1394897;88;21236;-81
2022/04/27 07:22:33;;;;;;;19.07;14.23;;;;;;;14.48;59.65;100512.03;1394268;88;21483;-80
2022/04/27 07:24:59;;;;;;;11.40;9.30;;;;;;;14.69;60.76;100518.66;1379746;89;21340;-81
2022/04/27 07:27:27;;;;;;;14.00;9.50;;;;;;;14.83;59.69;100516.60;1394529;88;21318;-81
2022/04/27 07:29:54;;;;;;;12.07;9.07;;;;;;;15.04;59.86;100520.00;1394638;88;21472;-81
2022/04/27 07:32:20;;;;;;;20.97;14.37;;;;;;;15.17;59.30;100527.44;1394247;87;21369;-81
2022/04/27 07:34:46;;;;;;;15.83;11.07;;;;;;;15.35;58.56;100527.48;1394297;88;21295;-81
2022/04/27 07:37:12;;;;;;;11.13;8.77;;;;;;;15.33;58.35;100528.19;1394310;88;22228;-81
2022/04/27 07:39:38;;;;;;;12.27;8.27;;;;;;;15.53;57.03;100526.37;1394322;88;21332;-81
2022/04/27 07:42:05;;;;;;;10.73;7.80;;;;;;;15.55;57.42;100523.85;1397045;87;21377;-81
2022/04/27 07:44:31;;;;;;;13.57;10.20;;;;;;;15.78;57.94;100522.54;1396541;89;21325;-81
2022/04/27 07:46:57;;;;;;;10.70;7.90;;;;;;;15.94;56.92;100527.41;1397743;88;21413;-81
2022/04/27 07:49:23;;;;;;;10.23;8.10;;;;;;;16.06;55.58;100524.66;1397586;87;21279;-81
2022/04/27 07:51:51;;;;;;;9.33;8.20;;;;;;;16.24;55.95;100530.98;1397807;88;22153;-81
2022/04/27 07:54:17;;;;;;;11.63;7.80;;;;;;;16.41;54.36;100526.31;1397536;88;22279;-81
2022/04/27 07:56:43;;;;;;;11.50;7.07;;;;;;;16.65;55.84;100533.22;1397323;88;21302;-81
2022/04/27 07:59:09;;;;;;;13.20;8.33;;;;;;;16.81;55.33;100540.26;1397665;87;21339;-81
2022/04/27 08:01:35;;;;;;;9.53;7.27;;;;;;;16.86;54.16;100533.34;1397724;88;21293;-81
2022/04/27 08:04:01;;;;;;;9.53;7.03;;;;;;;16.89;53.74;100540.16;1379171;89;21443;-81
2022/04/27 08:06:27;;;;;;;9.27;7.60;;;;;;;16.96;53.89;100541.06;1396583;88;21383;-81
2022/04/27 08:08:53;;;;;;;10.40;7.73;;;;;;;16.96;53.61;100533.55;1379153;89;22241;-81
2022/04/27 08:11:20;;;;;;;14.13;8.77;;;;;;;17.01;53.12;100541.34;1397428;88;22257;-81
2022/04/27 08:13:47;;;;;;;10.03;6.60;;;;;;;17.18;53.66;100543.80;1398054;88;21302;-81
2022/04/27 08:16:13;;;;;;;9.93;7.47;;;;;;;17.37;51.20;100536.48;1397561;87;21317;-81
2022/04/27 08:18:39;;;;;;;10.13;7.27;;;;;;;17.53;51.00;100542.95;1379977;89;21450;-81
2022/04/27 08:21:15;;;;;;;8.93;6.40;;;;;;;17.62;50.93;100542.83;1378975;89;21339;-81
2022/04/27 08:23:44;;;;;;;9.63;7.07;;;;;;;17.71;51.23;100537.66;1397065;88;21302;-81
2022/04/27 08:26:11;;;;;;;9.73;7.37;;;;;;;17.97;51.57;100541.12;1397224;88;21303;-81
2022/04/27 08:28:38;;;;;;;8.57;7.20;;;;;;;18.17;50.48;100541.28;1397826;88;21325;-81
2022/04/27 08:31:06;;;;;;;7.17;6.35;;;;;;;18.48;50.90;100537.69;1399055;87;21324;-81
2022/04/27 08:33:33;;;;;;;8.53;6.50;;;;;;;18.63;49.60;100530.04;1393975;88;21345;-81
2022/04/27 08:35:59;;;;;;;8.55;6.60;;;;;;;18.87;49.67;100530.93;1394292;88;21228;-82
2022/04/27 08:38:26;;;;;;;7.37;6.60;;;;;;;19.19;49.13;100535.77;1395242;88;22417;-87
2022/04/27 08:40:52;;;;;;;8.78;6.47;;;;;;;19.43;47.92;100529.05;1393046;87;21376;-86
2022/04/27 08:43:18;;;;;;;8.38;5.08;;;;;;;19.46;44.55;100529.98;1390680;88;21308;-86
2022/04/27 08:45:45;;;;;;;5.15;4.65;;;;;;;18.83;45.69;100531.52;1377553;90;21279;-88
2022/04/27 08:48:14;;;;;;;5.28;4.50;;;;;;;18.75;46.23;100530.34;1391063;88;21327;-83
2022/04/27 08:50:41;;;;;;;5.15;4.40;;;;;;;18.39;45.64;100529.48;1390757;88;21309;-85
2022/04/27 08:53:08;;;;;;;6.12;4.95;;;;;;;18.54;46.60;100537.41;1390841;88;21315;-82
2022/04/27 08:55:38;;;;;;;5.80;4.67;;;;;;;18.69;47.16;100534.60;1390775;88;22614;-84
2022/04/27 08:58:10;;;;;;;3.95;3.30;;;;;;;18.86;46.75;100530.59;1390981;88;21478;-84
2022/04/27 09:00:38;;;;;;;5.55;4.45;;;;;;;18.76;44.72;100531.49;1391063;88;21294;-83
2022/04/27 09:03:33;;;;;;;9.68;3.72;;;;;;;18.93;46.01;100526.11;1391255;88;21462;-87
2022/04/27 09:06:12;;;;;;;4.05;3.75;;;;;;;19.15;46.63;100529.47;1391183;88;21338;-86
2022/04/27 09:08:48;;;;;;;5.20;3.37;;;;;;;19.42;46.40;100526.88;1391444;88;21286;-87
2022/04/27 09:11:21;;;;;;;5.22;3.83;;;;;;;19.49;45.24;100524.20;1390794;88;21390;-88
2022/04/27 09:14:07;;;;;;;5.15;4.05;;;;;;;19.71;44.87;100521.69;1361676;91;21427;-88
2022/04/27 09:22:11;;;;;;;5.10;3.75;;;;;;;19.12;41.40;100525.84;1390513;88;21384;-81
2022/04/27 09:24:55;;;;;;;6.15;4.10;;;;;;;19.23;43.62;100520.42;1390508;88;21421;-83
2022/04/27 09:27:24;;;;;;;4.40;3.95;;;;;;;19.15;44.10;100519.26;1390904;88;21309;-83
2022/04/27 09:30:04;;;;;;;7.22;4.35;;;;;;;19.22;43.97;100518.78;1393680;88;21235;-82
2022/04/27 09:32:36;;;;;;;;;;;;;;;19.22;43.35;100519.27;1392861;88;21473;-82
2022/04/27 09:35:08;;;;;;;5.72;3.83;;;;;;;19.32;43.89;100523.23;1390575;88;20333;-83
2022/04/27 09:37:41;;;;;;;12.40;4.53;;;;;;;19.43;44.52;100516.45;1390402;88;22277;-83
2022/04/27 09:40:11;;;;;;;5.00;4.25;;;;;;;19.53;44.84;100515.52;1390757;88;21331;-83
2022/04/27 09:42:46;;;;;;;10.72;5.62;;;;;;;19.26;43.14;100517.33;1391616;88;21397;-86
2022/04/27 09:45:26;;;;;;;10.13;6.37;;;;;;;18.94;45.41;100518.88;1391646;87;21304;-87
2022/04/27 09:48:01;;;;;;;6.30;5.70;;;;;;;18.70;46.74;100516.14;1391305;88;21309;-85
2022/04/27 09:50:58;;;;;;;20.23;6.70;;;;;;;18.56;47.78;100519.78;1391765;87;21993;-87
2022/04/27 09:53:23;;;;;;;14.03;11.75;;;;;;;18.58;48.03;100516.39;1392701;88;21346;-86
2022/04/27 09:55:54;;;;;;;13.88;8.58;;;;;;;18.56;47.92;100525.14;1392382;87;21273;-86
2022/04/27 09:58:20;;;;;;;14.13;10.50;;;;;;;18.32;48.15;100525.92;1381500;88;21444;-85
2022/04/27 10:00:52;;;;;;;7.70;6.55;;;;;;;18.15;48.76;100523.23;1390852;87;22932;-86
2022/04/27 10:03:21;;;;;;;6.85;5.83;;;;;;;18.15;49.21;100525.91;1377869;90;21481;-88
2022/04/27 10:05:48;;;;;;;8.93;7.97;;;;;;;18.07;48.86;100519.34;1367563;90;23136;-86
2022/04/27 10:08:14;;;;;;;10.93;6.97;;;;;;;17.99;49.49;100517.66;1408197;87;21339;-87
2022/04/27 10:10:42;;;;;;;8.63;7.28;;;;;;;17.90;49.26;100525.01;1408254;87;22106;-88
2022/04/27 10:13:14;;;;;;;9.03;7.60;;;;;;;17.78;49.54;100526.04;1408220;87;21273;-86
2022/04/27 10:15:43;;;;;;;7.00;6.30;;;;;;;17.74;49.79;100527.91;1408665;87;21309;-87
2022/04/27 10:18:18;;;;;;;10.05;7.97;;;;;;;17.91;49.92;100522.64;1407898;87;21463;-87
2022/04/27 10:20:49;;;;;;;9.10;6.25;;;;;;;17.94;50.76;100519.57;1407586;87;21296;-87
2022/04/27 10:23:22;;;;;;;7.73;6.03;;;;;;;18.00;49.75;100526.00;1407491;87;22204;-87
2022/04/27 10:26:14;;;;;;;8.57;6.10;;;;;;;17.78;48.96;100521.17;1408089;87;21458;-85
2022/04/27 10:29:08;;;;;;;7.75;6.10;;;;;;;17.99;49.22;100515.81;1407556;87;21326;-86
2022/04/27 10:32:07;;;;;;;10.03;5.58;;;;;;;18.21;49.11;100515.75;1392865;90;21409;-86
2022/04/27 10:34:33;;;;;;;6.22;5.62;;;;;;;18.43;49.11;100507.96;1403513;86;21419;-87
2022/04/27 10:37:01;;;;;;;7.87;6.20;;;;;;;18.56;49.45;100513.08;1390391;88;22697;-88
2022/04/27 10:39:33;;;;;;;12.78;6.90;;;;;;;18.61;48.28;100511.45;1405162;87;21273;-88
2022/04/27 10:42:10;;;;;;;8.73;6.37;;;;;;;18.44;47.83;100505.63;1393411;86;21384;-88
2022/04/27 10:44:54;;;;;;;7.22;5.50;;;;;;;18.63;48.66;100502.72;1402073;87;21288;-86
2022/04/27 10:47:22;;;;;;;11.55;5.58;;;;;;;18.56;46.92;100511.73;1391443;87;22788;-87
2022/04/27 10:50:17;;;;;;;20.65;6.22;;;;;;;18.51;46.33;100510.19;1354195;91;21466;-87
2022/04/27 10:52:50;;;;;;;9.83;5.83;;;;;;;18.63;47.85;100517.45;1369580;93;21266;-87
2022/04/27 10:55:37;;;;;;;7.55;5.70;;;;;;;18.60;45.76;100515.70;1382296;88;21325;-87
2022/04/27 10:58:18;;;;;;;8.90;6.53;;;;;;;18.66;46.45;100513.56;1391681;88;22494;-87
2022/04/27 11:01:11;;;;;;;6.58;5.72;;;;;;;18.93;47.13;100510.50;1351360;91;21472;-88
2022/04/27 11:03:39;;;;;;;6.20;5.15;;;;;;;19.15;45.73;100513.89;1370379;90;21242;-87
2022/04/27 11:06:12;;;;;;;7.70;6.30;;;;;;;19.20;45.11;100515.98;1381404;89;21362;-87
2022/04/27 11:09:11;;;;;;;7.70;5.62;;;;;;;19.38;45.97;100513.02;1376122;90;21207;-87
2022/04/27 11:11:51;;;;;;;7.87;5.05;;;;;;;19.70;45.71;100517.86;1348877;92;22272;-87
2022/04/27 11:14:18;;;;;;;8.95;5.03;;;;;;;20.22;44.82;100511.63;1368547;90;22195;-87
2022/04/27 11:16:47;;;;;;;7.20;5.95;;;;;;;20.68;43.86;100509.91;1358440;89;22480;-86
2022/04/27 11:19:14;;;;;;;5.95;4.62;;;;;;;20.73;43.10;100510.93;1374271;88;21285;-88
2022/04/27 11:21:40;;;;;;;4.10;3.72;;;;;;;20.81;42.79;100508.53;1389607;89;21347;-88
2022/04/27 11:24:15;;;;;;;8.23;5.33;;;;;;;20.68;40.34;100509.91;1388121;88;21405;-88
2022/04/27 11:26:44;;;;;;;4.40;4.00;;;;;;;20.40;41.49;100506.98;1375804;89;22248;-93
2022/04/27 11:29:15;;;;;;;7.35;4.87;;;;;;;20.31;41.22;100503.36;1356739;91;21287;-88
2022/04/27 11:31:44;;;;;;;7.45;5.00;;;;;;;20.17;42.33;100502.55;1385146;89;21220;-87
2022/04/27 11:34:26;;;;;;;8.40;5.23;;;;;;;20.21;42.50;100498.42;1383095;88;22261;-87
2022/04/27 11:36:54;;;;;;;10.72;4.95;;;;;;;20.32;42.70;100492.94;1364507;91;21462;-87
2022/04/27 11:39:25;;;;;;;5.00;4.47;;;;;;;20.37;42.60;100498.48;1384058;88;21495;-88
2022/04/27 11:41:59;;;;;;;9.73;5.62;;;;;;;20.53;41.78;100496.73;1358866;90;22205;-86